sensor_id;sensor_type;location;lat;lon;timestamp;pressure;altitude;pressure_sealevel;temperature;humidity
7480;BME280;3781;42.272;22.658;2023-03-25T00:00:20;94344.78;;;8.07;100.00
7480;BME280;3781;42.272;22.658;2023-03-25T00:02:50;94337.22;;;8.26;100.00
7480;BME280;3781;42.272;22.658;2023-03-25T00:05:20;94335.31;;;8.28;100.00
7480;BME280;3781;42.272;22.658;2023-03-25T00:07:49;94312.19;;;7.95;100.00
7480;BME280;3781;42.272;22.658;2023-03-25T00:10:16;94344.22;;;7.83;100.00
7480;BME280;3781;42.272;22.658;2023-03-25T00:12:43;94340.69;;;7.52;100.00
7480;BME280;3781;42.272;22.658;2023-03-25T00:15:11;94340.81;;;7.50;100.00
7480;BME280;3781;42.272;22.658;2023-03-25T00:17:38;94345.72;;;7.53;100.00
7480;BME280;3781;42.272;22.658;2023-03-25T00:20:07;94349.63;;;7.80;100.00
7480;BME280;3781;42.272;22.658;2023-03-25T00:22:36;94338.22;;;7.82;100.00
7480;BME280;3781;42.272;22.658;2023-03-25T00:25:06;94334.53;;;7.96;100.00
7480;BME280;3781;42.272;22.658;2023-03-25T00:27:33;94335.47;;;8.15;100.00
7480;BME280;3781;42.272;22.658;2023-03-25T00:30:01;94337.94;;;8.17;100.00
7480;BME280;3781;42.272;22.658;2023-03-25T00:32:27;94317.38;;;7.95;100.00
7480;BME280;3781;42.272;22.658;2023-03-25T00:34:55;94326.50;;;7.99;100.00
7480;BME280;3781;42.272;22.658;2023-03-25T00:37:21;94326.00;;;8.05;100.00
7480;BME280;3781;42.272;22.658;2023-03-25T00:39:51;94334.78;;;7.93;100.00
7480;BME280;3781;42.272;22.658;2023-03-25T00:42:18;94312.44;;;7.39;100.00
7480;BME280;3781;42.272;22.658;2023-03-25T00:44:50;94324.44;;;7.29;100.00
7480;BME280;3781;42.272;22.658;2023-03-25T00:47:17;94318.38;;;7.19;100.00
7480;BME280;3781;42.272;22.658;2023-03-25T00:49:46;94323.16;;;7.24;100.00
7480;BME280;3781;42.272;22.658;2023-03-25T00:52:13;94309.44;;;7.23;100.00
7480;BME280;3781;42.272;22.658;2023-03-25T00:54:40;94291.81;;;7.28;100.00
7480;BME280;3781;42.272;22.658;2023-03-25T00:57:09;94303.97;;;7.37;100.00
7480;BME280;3781;42.272;22.658;2023-03-25T00:59:35;94308.00;;;7.30;100.00
7480;BME280;3781;42.272;22.658;2023-03-25T01:02:02;94302.94;;;7.29;100.00
7480;BME280;3781;42.272;22.658;2023-03-25T01:04:31;94277.72;;;6.78;100.00
7480;BME280;3781;42.272;22.658;2023-03-25T01:06:58;94290.16;;;6.73;100.00
7480;BME280;3781;42.272;22.658;2023-03-25T01:09:26;94286.06;;;6.49;100.00
7480;BME280;3781;42.272;22.658;2023-03-25T01:11:52;94303.41;;;6.47;100.00
7480;BME280;3781;42.272;22.658;2023-03-25T01:14:22;94290.03;;;6.42;100.00
7480;BME280;3781;42.272;22.658;2023-03-25T01:16:52;94290.03;;;6.64;100.00
7480;BME280;3781;42.272;22.658;2023-03-25T01:19:18;94293.91;;;6.69;100.00
7480;BME280;3781;42.272;22.658;2023-03-25T01:21:46;94286.03;;;6.93;100.00
7480;BME280;3781;42.272;22.658;2023-03-25T01:24:13;94285.03;;;7.05;100.00
7480;BME280;3781;42.272;22.658;2023-03-25T01:26:40;94270.94;;;7.09;100.00
7480;BME280;3781;42.272;22.658;2023-03-25T01:29:08;94270.41;;;6.95;100.00
7480;BME280;3781;42.272;22.658;2023-03-25T01:31:36;94271.13;;;6.85;100.00
7480;BME280;3781;42.272;22.658;2023-03-25T01:34:03;94273.63;;;6.54;100.00
7480;BME280;3781;42.272;22.658;2023-03-25T01:36:30;94270.09;;;6.55;100.00
7480;BME280;3781;42.272;22.658;2023-03-25T01:38:58;94271.75;;;6.56;100.00
7480;BME280;3781;42.272;22.658;2023-03-25T01:41:27;94272.69;;;6.55;100.00
7480;BME280;3781;42.272;22.658;2023-03-25T01:44:06;94281.38;;;6.65;100.00
7480;BME280;3781;42.272;22.658;2023-03-25T01:46:34;94265.59;;;6.90;100.00
7480;BME280;3781;42.272;22.658;2023-03-25T01:49:05;94252.00;;;6.88;100.00
7480;BME280;3781;42.272;22.658;2023-03-25T01:51:34;94261.59;;;6.97;100.00
7480;BME280;3781;42.272;22.658;2023-03-25T01:54:03;94251.78;;;6.91;100.00
7480;BME280;3781;42.272;22.658;2023-03-25T01:56:32;94243.38;;;6.45;100.00
7480;BME280;3781;42.272;22.658;2023-03-25T01:59:03;94255.91;;;6.71;100.00
7480;BME280;3781;42.272;22.658;2023-03-25T02:01:31;94249.69;;;6.74;100.00
7480;BME280;3781;42.272;22.658;2023-03-25T02:03:59;94250.41;;;6.76;100.00
7480;BME280;3781;42.272;22.658;2023-03-25T02:06:41;94254.19;;;6.39;100.00
7480;BME280;3781;42.272;22.658;2023-03-25T02:09:09;94218.56;;;6.11;100.00
7480;BME280;3781;42.272;22.658;2023-03-25T02:11:36;94253.22;;;6.51;100.00
7480;BME280;3781;42.272;22.658;2023-03-25T02:14:06;94257.88;;;6.79;100.00
7480;BME280;3781;42.272;22.658;2023-03-25T02:16:42;94255.72;;;7.06;100.00
7480;BME280;3781;42.272;22.658;2023-03-25T02:19:52;94263.72;;;6.92;100.00
7480;BME280;3781;42.272;22.658;2023-03-25T02:23:15;94257.53;;;6.72;100.00
7480;BME280;3781;42.272;22.658;2023-03-25T02:26:09;94257.88;;;6.68;100.00
7480;BME280;3781;42.272;22.658;2023-03-25T02:28:48;94258.03;;;6.55;100.00
7480;BME280;3781;42.272;22.658;2023-03-25T02:31:37;94260.88;;;6.52;100.00
7480;BME280;3781;42.272;22.658;2023-03-25T02:34:26;94263.78;;;6.26;100.00
7480;BME280;3781;42.272;22.658;2023-03-25T02:37:09;94233.31;;;6.20;100.00
7480;BME280;3781;42.272;22.658;2023-03-25T02:39:45;94253.69;;;6.45;100.00
7480;BME280;3781;42.272;22.658;2023-03-25T02:42:16;94254.88;;;6.52;100.00
7480;BME280;3781;42.272;22.658;2023-03-25T02:44:49;94250.91;;;6.15;100.00
7480;BME280;3781;42.272;22.658;2023-03-25T02:47:22;94230.91;;;5.83;100.00
7480;BME280;3781;42.272;22.658;2023-03-25T02:49:53;94250.06;;;6.14;100.00
7480;BME280;3781;42.272;22.658;2023-03-25T02:52:24;94243.50;;;6.32;100.00
7480;BME280;3781;42.272;22.658;2023-03-25T02:54:56;94213.16;;;6.14;100.00
7480;BME280;3781;42.272;22.658;2023-03-25T02:57:27;94240.09;;;6.43;100.00
7480;BME280;3781;42.272;22.658;2023-03-25T02:59:55;94213.63;;;6.30;100.00
7480;BME280;3781;42.272;22.658;2023-03-25T03:02:25;94240.09;;;6.43;100.00
7480;BME280;3781;42.272;22.658;2023-03-25T03:04:54;94230.72;;;6.31;100.00
7480;BME280;3781;42.272;22.658;2023-03-25T03:07:26;94234.56;;;5.92;100.00
7480;BME280;3781;42.272;22.658;2023-03-25T03:10:03;94236.09;;;5.94;100.00
7480;BME280;3781;42.272;22.658;2023-03-25T03:12:48;94232.38;;;6.09;100.00
7480;BME280;3781;42.272;22.658;2023-03-25T03:15:32;94236.97;;;6.39;100.00
7480;BME280;3781;42.272;22.658;2023-03-25T03:18:13;94236.13;;;6.50;100.00
7480;BME280;3781;42.272;22.658;2023-03-25T03:20:51;94238.09;;;6.35;100.00
7480;BME280;3781;42.272;22.658;2023-03-25T03:23:24;94232.84;;;6.26;100.00
7480;BME280;3781;42.272;22.658;2023-03-25T03:25:55;94238.22;;;6.12;100.00
7480;BME280;3781;42.272;22.658;2023-03-25T03:28:31;94215.97;;;5.99;100.00
7480;BME280;3781;42.272;22.658;2023-03-25T03:31:04;94244.44;;;6.20;100.00
7480;BME280;3781;42.272;22.658;2023-03-25T03:33:35;94237.41;;;6.22;100.00
7480;BME280;3781;42.272;22.658;2023-03-25T03:36:06;94241.97;;;6.19;100.00
7480;BME280;3781;42.272;22.658;2023-03-25T03:38:36;94253.94;;;6.20;100.00
7480;BME280;3781;42.272;22.658;2023-03-25T03:41:08;94246.78;;;6.12;100.00
7480;BME280;3781;42.272;22.658;2023-03-25T03:43:41;94253.94;;;6.08;100.00
7480;BME280;3781;42.272;22.658;2023-03-25T03:46:14;94244.09;;;5.91;100.00
7480;BME280;3781;42.272;22.658;2023-03-25T03:48:46;94248.13;;;5.72;100.00
7480;BME280;3781;42.272;22.658;2023-03-25T03:51:16;94249.38;;;5.66;100.00
7480;BME280;3781;42.272;22.658;2023-03-25T03:53:50;94249.38;;;5.66;100.00
7480;BME280;3781;42.272;22.658;2023-03-25T03:56:22;94251.41;;;5.74;100.00
7480;BME280;3781;42.272;22.658;2023-03-25T03:58:53;94224.97;;;5.48;100.00
7480;BME280;3781;42.272;22.658;2023-03-25T04:01:27;94256.91;;;5.80;100.00
7480;BME280;3781;42.272;22.658;2023-03-25T04:04:02;94244.75;;;5.82;100.00
7480;BME280;3781;42.272;22.658;2023-03-25T04:06:34;94246.38;;;5.83;100.00
7480;BME280;3781;42.272;22.658;2023-03-25T04:09:09;94250.63;;;5.50;100.00
7480;BME280;3781;42.272;22.658;2023-03-25T04:11:49;94217.22;;;5.26;100.00
7480;BME280;3781;42.272;22.658;2023-03-25T04:14:17;94250.97;;;5.45;100.00
7480;BME280;3781;42.272;22.658;2023-03-25T04:16:44;94244.28;;;5.43;100.00
7480;BME280;3781;42.272;22.658;2023-03-25T04:19:11;94249.31;;;5.44;100.00
7480;BME280;3781;42.272;22.658;2023-03-25T04:21:38;94248.66;;;5.53;100.00
7480;BME280;3781;42.272;22.658;2023-03-25T04:24:05;94239.75;;;5.57;100.00
7480;BME280;3781;42.272;22.658;2023-03-25T04:26:33;94227.75;;;5.34;100.00
7480;BME280;3781;42.272;22.658;2023-03-25T04:29:04;94244.81;;;5.35;100.00
7480;BME280;3781;42.272;22.658;2023-03-25T04:31:32;94238.59;;;5.15;100.00
7480;BME280;3781;42.272;22.658;2023-03-25T04:33:59;94257.00;;;5.33;100.00
7480;BME280;3781;42.272;22.658;2023-03-25T04:36:27;94253.72;;;5.31;100.00
7480;BME280;3781;42.272;22.658;2023-03-25T04:38:58;94259.09;;;5.28;100.00
7480;BME280;3781;42.272;22.658;2023-03-25T04:41:25;94253.97;;;5.28;100.00
7480;BME280;3781;42.272;22.658;2023-03-25T04:43:52;94260.59;;;5.19;100.00
7480;BME280;3781;42.272;22.658;2023-03-25T04:46:21;94249.19;;;5.34;100.00
7480;BME280;3781;42.272;22.658;2023-03-25T04:48:47;94260.81;;;5.51;100.00
7480;BME280;3781;42.272;22.658;2023-03-25T04:51:14;94268.84;;;5.81;100.00
7480;BME280;3781;42.272;22.658;2023-03-25T04:53:41;94266.28;;;5.81;100.00
7480;BME280;3781;42.272;22.658;2023-03-25T04:56:11;94263.53;;;5.95;100.00
7480;BME280;3781;42.272;22.658;2023-03-25T04:58:40;94258.63;;;6.03;100.00
7480;BME280;3781;42.272;22.658;2023-03-25T05:01:11;94268.94;;;6.26;100.00
7480;BME280;3781;42.272;22.658;2023-03-25T05:03:43;94267.31;;;6.47;100.00
7480;BME280;3781;42.272;22.658;2023-03-25T05:06:10;94271.03;;;6.87;100.00
7480;BME280;3781;42.272;22.658;2023-03-25T05:08:37;94271.22;;;7.06;100.00
7480;BME280;3781;42.272;22.658;2023-03-25T05:11:04;94276.13;;;7.09;100.00
7480;BME280;3781;42.272;22.658;2023-03-25T05:13:31;94252.91;;;6.98;100.00
7480;BME280;3781;42.272;22.658;2023-03-25T05:15:58;94273.28;;;7.12;100.00
7480;BME280;3781;42.272;22.658;2023-03-25T05:18:24;94273.75;;;7.17;100.00
7480;BME280;3781;42.272;22.658;2023-03-25T05:20:53;94277.72;;;7.21;100.00
7480;BME280;3781;42.272;22.658;2023-03-25T05:23:21;94280.47;;;7.40;100.00
7480;BME280;3781;42.272;22.658;2023-03-25T05:25:49;94285.69;;;7.61;100.00
7480;BME280;3781;42.272;22.658;2023-03-25T05:28:17;94269.69;;;7.88;100.00
7480;BME280;3781;42.272;22.658;2023-03-25T05:30:45;94288.97;;;8.25;100.00
7480;BME280;3781;42.272;22.658;2023-03-25T05:33:14;94280.03;;;8.59;100.00
7480;BME280;3781;42.272;22.658;2023-03-25T05:35:42;94293.41;;;8.34;100.00
7480;BME280;3781;42.272;22.658;2023-03-25T05:38:10;94286.13;;;8.49;100.00
7480;BME280;3781;42.272;22.658;2023-03-25T05:40:38;94281.84;;;8.68;100.00
7480;BME280;3781;42.272;22.658;2023-03-25T05:43:06;94263.91;;;8.46;100.00
7480;BME280;3781;42.272;22.658;2023-03-25T05:45:33;94283.75;;;8.66;100.00
7480;BME280;3781;42.272;22.658;2023-03-25T05:48:00;94277.00;;;8.84;100.00
7480;BME280;3781;42.272;22.658;2023-03-25T05:50:27;94263.94;;;8.95;100.00
7480;BME280;3781;42.272;22.658;2023-03-25T05:52:54;94267.75;;;8.91;100.00
7480;BME280;3781;42.272;22.658;2023-03-25T05:55:23;94277.03;;;9.03;100.00
7480;BME280;3781;42.272;22.658;2023-03-25T05:57:50;94272.06;;;9.31;100.00
7480;BME280;3781;42.272;22.658;2023-03-25T06:00:17;94275.06;;;9.45;100.00
7480;BME280;3781;42.272;22.658;2023-03-25T06:02:45;94277.25;;;9.59;100.00
7480;BME280;3781;42.272;22.658;2023-03-25T06:05:14;94278.50;;;9.65;100.00
7480;BME280;3781;42.272;22.658;2023-03-25T06:07:42;94286.13;;;9.57;100.00
7480;BME280;3781;42.272;22.658;2023-03-25T06:10:10;94277.13;;;9.51;100.00
7480;BME280;3781;42.272;22.658;2023-03-25T06:12:38;94285.00;;;9.40;100.00
7480;BME280;3781;42.272;22.658;2023-03-25T06:15:07;94257.03;;;9.25;100.00
7480;BME280;3781;42.272;22.658;2023-03-25T06:17:34;94253.09;;;9.40;100.00
7480;BME280;3781;42.272;22.658;2023-03-25T06:20:03;94277.91;;;9.90;97.93
7480;BME280;3781;42.272;22.658;2023-03-25T06:22:36;94262.03;;;10.31;94.20
7480;BME280;3781;42.272;22.658;2023-03-25T06:25:04;94265.94;;;10.82;90.71
7480;BME280;3781;42.272;22.658;2023-03-25T06:27:30;94281.63;;;11.17;86.92
7480;BME280;3781;42.272;22.658;2023-03-25T06:30:00;94262.69;;;12.04;80.90
7480;BME280;3781;42.272;22.658;2023-03-25T06:32:27;94283.31;;;12.24;76.46
7480;BME280;3781;42.272;22.658;2023-03-25T06:34:55;94291.88;;;12.93;72.72
7480;BME280;3781;42.272;22.658;2023-03-25T06:37:21;94275.16;;;13.45;70.40
7480;BME280;3781;42.272;22.658;2023-03-25T06:39:50;94289.09;;;14.59;67.01
7480;BME280;3781;42.272;22.658;2023-03-25T06:42:21;94292.34;;;15.93;60.33
7480;BME280;3781;42.272;22.658;2023-03-25T06:44:47;94296.78;;;17.19;55.16
7480;BME280;3781;42.272;22.658;2023-03-25T06:47:16;94293.31;;;17.62;51.46
7480;BME280;3781;42.272;22.658;2023-03-25T06:49:43;94285.00;;;17.94;51.30
7480;BME280;3781;42.272;22.658;2023-03-25T06:52:10;94276.75;;;17.97;50.71
7480;BME280;3781;42.272;22.658;2023-03-25T06:54:37;94290.19;;;17.38;51.26
7480;BME280;3781;42.272;22.658;2023-03-25T06:57:04;94276.81;;;16.51;53.25
7480;BME280;3781;42.272;22.658;2023-03-25T06:59:31;94285.38;;;15.47;56.56
7480;BME280;3781;42.272;22.658;2023-03-25T07:01:58;94251.03;;;14.64;58.20
7480;BME280;3781;42.272;22.658;2023-03-25T07:04:26;94286.63;;;13.93;61.30
7480;BME280;3781;42.272;22.658;2023-03-25T07:06:53;94281.41;;;13.85;63.27
7480;BME280;3781;42.272;22.658;2023-03-25T07:09:20;94278.56;;;13.46;66.01
7480;BME280;3781;42.272;22.658;2023-03-25T07:11:47;94273.69;;;13.51;66.00
7480;BME280;3781;42.272;22.658;2023-03-25T07:14:13;94276.75;;;13.46;67.96
7480;BME280;3781;42.272;22.658;2023-03-25T07:16:40;94281.84;;;13.64;66.36
7480;BME280;3781;42.272;22.658;2023-03-25T07:19:07;94274.06;;;13.72;67.15
7480;BME280;3781;42.272;22.658;2023-03-25T07:21:35;94287.78;;;13.82;65.76
7480;BME280;3781;42.272;22.658;2023-03-25T07:24:02;94280.44;;;14.02;65.73
7480;BME280;3781;42.272;22.658;2023-03-25T07:26:29;94290.91;;;14.34;64.45
7480;BME280;3781;42.272;22.658;2023-03-25T07:28:55;94285.03;;;14.40;64.05
7480;BME280;3781;42.272;22.658;2023-03-25T07:31:22;94273.66;;;14.88;63.06
7480;BME280;3781;42.272;22.658;2023-03-25T07:33:49;94282.16;;;15.98;58.89
7480;BME280;3781;42.272;22.658;2023-03-25T07:36:17;94283.06;;;16.50;55.44
7480;BME280;3781;42.272;22.658;2023-03-25T07:38:47;94274.97;;;16.37;55.02
7480;BME280;3781;42.272;22.658;2023-03-25T07:41:14;94277.38;;;16.62;54.17
7480;BME280;3781;42.272;22.658;2023-03-25T07:43:41;94259.81;;;18.00;52.41
7480;BME280;3781;42.272;22.658;2023-03-25T07:46:07;94277.84;;;18.73;49.78
7480;BME280;3781;42.272;22.658;2023-03-25T07:48:34;94273.78;;;19.80;46.45
7480;BME280;3781;42.272;22.658;2023-03-25T07:51:02;94259.50;;;20.21;44.99
7480;BME280;3781;42.272;22.658;2023-03-25T07:53:29;94282.25;;;20.68;44.56
7480;BME280;3781;42.272;22.658;2023-03-25T07:55:57;94272.50;;;21.01;43.95
7480;BME280;3781;42.272;22.658;2023-03-25T07:58:24;94262.38;;;21.12;43.29
7480;BME280;3781;42.272;22.658;2023-03-25T08:00:50;94269.34;;;21.57;42.79
7480;BME280;3781;42.272;22.658;2023-03-25T08:03:17;94254.59;;;21.30;41.71
7480;BME280;3781;42.272;22.658;2023-03-25T08:05:44;94256.66;;;22.47;40.27
7480;BME280;3781;42.272;22.658;2023-03-25T08:08:12;94252.91;;;23.29;37.88
7480;BME280;3781;42.272;22.658;2023-03-25T08:10:40;94247.84;;;22.53;39.79
7480;BME280;3781;42.272;22.658;2023-03-25T08:13:10;94247.78;;;20.76;42.65
7480;BME280;3781;42.272;22.658;2023-03-25T08:15:37;94243.91;;;19.46;45.79
7480;BME280;3781;42.272;22.658;2023-03-25T08:18:04;94236.47;;;19.22;46.78
7480;BME280;3781;42.272;22.658;2023-03-25T08:20:31;94239.78;;;18.69;46.38
7480;BME280;3781;42.272;22.658;2023-03-25T08:22:58;94234.47;;;18.97;46.98
7480;BME280;3781;42.272;22.658;2023-03-25T08:25:25;94222.88;;;19.73;46.38
7480;BME280;3781;42.272;22.658;2023-03-25T08:27:53;94231.03;;;21.28;43.77
7480;BME280;3781;42.272;22.658;2023-03-25T08:30:22;94224.59;;;22.87;41.14
7480;BME280;3781;42.272;22.658;2023-03-25T08:32:48;94225.69;;;23.58;38.21
7480;BME280;3781;42.272;22.658;2023-03-25T08:35:19;94195.63;;;23.64;37.53
7480;BME280;3781;42.272;22.658;2023-03-25T08:37:46;94205.09;;;24.84;36.73
7480;BME280;3781;42.272;22.658;2023-03-25T08:40:13;94206.84;;;24.79;36.54
7480;BME280;3781;42.272;22.658;2023-03-25T08:42:41;94162.66;;;22.70;39.36
7480;BME280;3781;42.272;22.658;2023-03-25T08:45:09;94174.63;;;23.33;39.34
7480;BME280;3781;42.272;22.658;2023-03-25T08:47:37;94195.66;;;23.46;38.07
7480;BME280;3781;42.272;22.658;2023-03-25T08:50:05;94195.94;;;24.68;37.03
7480;BME280;3781;42.272;22.658;2023-03-25T08:52:32;94193.72;;;24.54;36.18
7480;BME280;3781;42.272;22.658;2023-03-25T08:54:59;94185.88;;;24.36;35.79
7480;BME280;3781;42.272;22.658;2023-03-25T08:57:25;94191.47;;;25.15;34.58
7480;BME280;3781;42.272;22.658;2023-03-25T08:59:52;94182.28;;;25.58;34.39
7480;BME280;3781;42.272;22.658;2023-03-25T09:02:19;94181.97;;;24.73;35.54
7480;BME280;3781;42.272;22.658;2023-03-25T09:04:48;94180.16;;;24.85;35.97
7480;BME280;3781;42.272;22.658;2023-03-25T09:07:15;94182.91;;;25.13;35.95
7480;BME280;3781;42.272;22.658;2023-03-25T09:09:44;94184.03;;;27.03;33.25
7480;BME280;3781;42.272;22.658;2023-03-25T09:12:11;94187.06;;;27.93;31.37
7480;BME280;3781;42.272;22.658;2023-03-25T09:14:38;94189.09;;;28.34;30.77
7480;BME280;3781;42.272;22.658;2023-03-25T09:17:05;94175.13;;;27.14;32.26
7480;BME280;3781;42.272;22.658;2023-03-25T09:19:33;94180.47;;;25.75;34.46
7480;BME280;3781;42.272;22.658;2023-03-25T09:22:01;94175.88;;;25.98;34.53
7480;BME280;3781;42.272;22.658;2023-03-25T09:24:28;94165.31;;;26.48;34.19
7480;BME280;3781;42.272;22.658;2023-03-25T09:26:58;94170.66;;;27.20;32.43
7480;BME280;3781;42.272;22.658;2023-03-25T09:29:25;94172.50;;;27.79;32.55
7480;BME280;3781;42.272;22.658;2023-03-25T09:31:52;94170.16;;;27.61;31.65
7480;BME280;3781;42.272;22.658;2023-03-25T09:34:18;94158.97;;;26.21;34.43
7480;BME280;3781;42.272;22.658;2023-03-25T09:36:45;94157.78;;;27.33;33.07
7480;BME280;3781;42.272;22.658;2023-03-25T09:39:13;94145.84;;;27.36;32.25
7480;BME280;3781;42.272;22.658;2023-03-25T09:41:51;94154.47;;;27.91;31.18
7480;BME280;3781;42.272;22.658;2023-03-25T09:44:24;94154.72;;;27.03;32.04
7480;BME280;3781;42.272;22.658;2023-03-25T09:46:53;94140.78;;;27.83;32.05
7480;BME280;3781;42.272;22.658;2023-03-25T09:49:23;94150.50;;;28.79;31.30
7480;BME280;3781;42.272;22.658;2023-03-25T09:51:53;94126.38;;;27.84;31.42
7480;BME280;3781;42.272;22.658;2023-03-25T09:54:24;94138.66;;;27.20;31.79
7480;BME280;3781;42.272;22.658;2023-03-25T09:56:55;94137.72;;;28.22;31.01
7480;BME280;3781;42.272;22.658;2023-03-25T09:59:24;94110.03;;;27.80;31.12
7480;BME280;3781;42.272;22.658;2023-03-25T10:01:59;94125.44;;;27.73;31.19
7480;BME280;3781;42.272;22.658;2023-03-25T10:04:49;94107.03;;;26.68;33.35
7480;BME280;3781;42.272;22.658;2023-03-25T10:07:35;94111.66;;;25.50;34.68
7480;BME280;3781;42.272;22.658;2023-03-25T10:10:12;94104.81;;;25.54;34.73
7480;BME280;3781;42.272;22.658;2023-03-25T10:12:44;94108.16;;;25.78;35.07
7480;BME280;3781;42.272;22.658;2023-03-25T10:15:24;94103.81;;;25.43;34.77
7480;BME280;3781;42.272;22.658;2023-03-25T10:18:04;94093.00;;;26.23;33.93
7480;BME280;3781;42.272;22.658;2023-03-25T10:20:43;94094.13;;;26.77;31.24
7480;BME280;3781;42.272;22.658;2023-03-25T10:23:21;94089.63;;;26.44;30.75
7480;BME280;3781;42.272;22.658;2023-03-25T10:25:57;94089.59;;;26.99;28.58
7480;BME280;3781;42.272;22.658;2023-03-25T10:28:29;94084.22;;;27.59;27.59
7480;BME280;3781;42.272;22.658;2023-03-25T10:30:59;94079.06;;;28.69;27.64
7480;BME280;3781;42.272;22.658;2023-03-25T10:33:34;94077.00;;;28.13;26.96
7480;BME280;3781;42.272;22.658;2023-03-25T10:36:02;94065.66;;;26.82;27.92
7480;BME280;3781;42.272;22.658;2023-03-25T10:38:31;94061.72;;;26.13;28.93
7480;BME280;3781;42.272;22.658;2023-03-25T10:41:10;94051.78;;;26.80;29.23
7480;BME280;3781;42.272;22.658;2023-03-25T10:43:41;94050.94;;;27.40;27.89
7480;BME280;3781;42.272;22.658;2023-03-25T10:46:13;94038.81;;;27.32;28.17
7480;BME280;3781;42.272;22.658;2023-03-25T10:48:42;94042.38;;;27.38;29.01
7480;BME280;3781;42.272;22.658;2023-03-25T10:51:10;94035.44;;;26.94;28.46
7480;BME280;3781;42.272;22.658;2023-03-25T10:53:39;94041.00;;;27.14;28.10
7480;BME280;3781;42.272;22.658;2023-03-25T10:56:11;94030.72;;;27.71;27.91
7480;BME280;3781;42.272;22.658;2023-03-25T10:58:41;94036.69;;;28.88;26.97
7480;BME280;3781;42.272;22.658;2023-03-25T11:01:10;94014.16;;;28.37;26.22
7480;BME280;3781;42.272;22.658;2023-03-25T11:03:38;94040.16;;;28.47;26.26
7480;BME280;3781;42.272;22.658;2023-03-25T11:06:06;94041.00;;;29.04;26.26
7480;BME280;3781;42.272;22.658;2023-03-25T11:08:55;94032.34;;;28.82;25.83
7480;BME280;3781;42.272;22.658;2023-03-25T11:11:30;94003.75;;;26.97;28.11
7480;BME280;3781;42.272;22.658;2023-03-25T11:13:57;94006.75;;;26.62;28.81
7480;BME280;3781;42.272;22.658;2023-03-25T11:16:25;94001.59;;;26.17;29.64
7480;BME280;3781;42.272;22.658;2023-03-25T11:18:52;94004.34;;;25.73;29.93
7480;BME280;3781;42.272;22.658;2023-03-25T11:21:19;93985.75;;;26.28;29.16
7480;BME280;3781;42.272;22.658;2023-03-25T11:23:47;94004.72;;;25.98;29.72
7480;BME280;3781;42.272;22.658;2023-03-25T11:26:18;93993.44;;;25.91;29.02
7480;BME280;3781;42.272;22.658;2023-03-25T11:28:48;93997.44;;;24.87;29.27
7480;BME280;3781;42.272;22.658;2023-03-25T11:31:17;93993.81;;;23.95;29.52
7480;BME280;3781;42.272;22.658;2023-03-25T11:33:46;94003.72;;;23.06;30.36
7480;BME280;3781;42.272;22.658;2023-03-25T11:36:27;93988.94;;;22.50;30.57
7480;BME280;3781;42.272;22.658;2023-03-25T11:38:59;93989.22;;;22.24;30.67
7480;BME280;3781;42.272;22.658;2023-03-25T11:41:34;93969.22;;;21.92;31.23
7480;BME280;3781;42.272;22.658;2023-03-25T11:44:04;93973.91;;;21.65;31.65
7480;BME280;3781;42.272;22.658;2023-03-25T11:46:32;93962.47;;;21.47;31.66
7480;BME280;3781;42.272;22.658;2023-03-25T11:49:07;93964.47;;;21.27;32.82
7480;BME280;3781;42.272;22.658;2023-03-25T11:51:36;93965.75;;;21.18;32.66
7480;BME280;3781;42.272;22.658;2023-03-25T11:54:06;93963.81;;;21.00;33.72
7480;BME280;3781;42.272;22.658;2023-03-25T11:56:36;93954.47;;;20.97;33.95
7480;BME280;3781;42.272;22.658;2023-03-25T11:59:09;93952.88;;;20.96;34.06
7480;BME280;3781;42.272;22.658;2023-03-25T12:01:45;93956.88;;;21.06;33.49
7480;BME280;3781;42.272;22.658;2023-03-25T12:04:14;93959.88;;;20.78;34.05
7480;BME280;3781;42.272;22.658;2023-03-25T12:06:52;93958.31;;;20.70;33.66
7480;BME280;3781;42.272;22.658;2023-03-25T12:09:19;93966.97;;;20.77;33.75
7480;BME280;3781;42.272;22.658;2023-03-25T12:11:53;93957.84;;;20.73;33.73
7480;BME280;3781;42.272;22.658;2023-03-25T12:14:30;93950.97;;;20.72;33.38
7480;BME280;3781;42.272;22.658;2023-03-25T12:17:05;93963.09;;;20.80;34.22
7480;BME280;3781;42.272;22.658;2023-03-25T12:19:45;93953.59;;;20.79;33.94
7480;BME280;3781;42.272;22.658;2023-03-25T12:22:27;93953.81;;;20.71;33.75
7480;BME280;3781;42.272;22.658;2023-03-25T12:25:06;93942.09;;;20.60;33.75
7480;BME280;3781;42.272;22.658;2023-03-25T12:27:46;93954.72;;;20.52;33.37
7480;BME280;3781;42.272;22.658;2023-03-25T12:30:28;93957.84;;;20.73;31.82
7480;BME280;3781;42.272;22.658;2023-03-25T12:33:04;93960.69;;;20.78;32.10
7480;BME280;3781;42.272;22.658;2023-03-25T12:35:40;93954.88;;;20.94;31.75
7480;BME280;3781;42.272;22.658;2023-03-25T12:38:27;93956.06;;;21.12;31.62
7480;BME280;3781;42.272;22.658;2023-03-25T12:41:10;93962.50;;;21.16;32.03
7480;BME280;3781;42.272;22.658;2023-03-25T12:43:49;93961.66;;;21.22;30.88
7480;BME280;3781;42.272;22.658;2023-03-25T12:46:44;93965.59;;;21.37;32.08
7480;BME280;3781;42.272;22.658;2023-03-25T12:49:25;93960.50;;;21.36;32.13
7480;BME280;3781;42.272;22.658;2023-03-25T12:52:03;93958.84;;;21.17;31.91
7480;BME280;3781;42.272;22.658;2023-03-25T12:54:44;93967.84;;;21.09;32.08
7480;BME280;3781;42.272;22.658;2023-03-25T12:57:38;93901.50;;;20.17;32.04
7480;BME280;3781;42.272;22.658;2023-03-25T13:00:37;93960.50;;;20.29;33.54
7480;BME280;3781;42.272;22.658;2023-03-25T13:06:26;93954.50;;;19.96;34.05
7480;BME280;3781;42.272;22.658;2023-03-25T13:08:59;93966.88;;;19.89;33.98
7480;BME280;3781;42.272;22.658;2023-03-25T13:11:33;93976.44;;;19.70;34.72
7480;BME280;3781;42.272;22.658;2023-03-25T13:14:06;93977.25;;;19.44;35.08
7480;BME280;3781;42.272;22.658;2023-03-25T13:16:38;93964.25;;;19.10;35.59
7480;BME280;3781;42.272;22.658;2023-03-25T13:19:10;94000.06;;;18.98;37.40
7480;BME280;3781;42.272;22.658;2023-03-25T13:21:42;94004.91;;;18.41;39.84
7480;BME280;3781;42.272;22.658;2023-03-25T13:24:13;94016.16;;;18.22;41.57
7480;BME280;3781;42.272;22.658;2023-03-25T13:26:44;93996.00;;;17.67;42.77
7480;BME280;3781;42.272;22.658;2023-03-25T13:29:24;94000.84;;;17.63;42.92
7480;BME280;3781;42.272;22.658;2023-03-25T13:31:53;93996.66;;;17.75;42.79